createdAt,value
2019-03-28T00:00:52.656Z,74.27
2019-03-28T00:03:57.077Z,74.09
2019-03-28T00:07:01.658Z,73.72
2019-03-28T00:10:06.427Z,73.12
2019-03-28T00:13:13.374Z,73.14
2019-03-28T00:16:17.701Z,72.96
2019-03-28T00:19:22.321Z,73.49
2019-03-28T00:22:35.775Z,74.22
2019-03-28T00:25:40.448Z,74.23
2019-03-28T00:28:44.877Z,72.92
2019-03-28T00:31:49.662Z,73.34
2019-03-28T00:34:54.210Z,73.77
2019-03-28T00:37:58.912Z,74.13
2019-03-28T00:41:03.962Z,74.36
2019-03-28T00:44:08.406Z,74.32
2019-03-28T00:47:12.840Z,74.04
2019-03-28T00:50:17.627Z,74.05
2019-03-28T00:53:22.875Z,73.82
2019-03-28T00:56:27.483Z,73.59
2019-03-28T00:59:32.315Z,73.74
2019-03-28T01:02:38.231Z,73.32
2019-03-28T01:05:42.860Z,73.12
2019-03-28T01:08:47.351Z,73.92
2019-03-28T01:11:51.882Z,73.72
2019-03-28T01:14:56.642Z,74.51
2019-03-28T01:18:01.142Z,75.15
2019-03-28T01:21:05.761Z,74.97
2019-03-28T01:24:10.745Z,75.54
2019-03-28T01:27:16.072Z,75.85
2019-03-28T01:30:20.639Z,75.53
2019-03-28T01:33:27.078Z,75.35
2019-03-28T01:36:31.444Z,75.45
2019-03-28T01:39:36.080Z,75.52
2019-03-28T01:42:41.239Z,75.49
2019-03-28T01:45:46.387Z,75.79
2019-03-28T01:48:51.426Z,75.44
2019-03-28T01:51:56.245Z,75.26
2019-03-28T01:55:01.164Z,75.56
2019-03-28T01:58:05.737Z,74.98
2019-03-28T02:01:10.462Z,75.50
2019-03-28T02:04:15.205Z,76.01
2019-03-28T02:07:19.676Z,76.53
2019-03-28T02:10:24.367Z,76.72
2019-03-28T02:13:29.122Z,76.24
2019-03-28T02:16:33.587Z,76.26
2019-03-28T02:19:38.397Z,76.31
2019-03-28T02:22:42.910Z,77.05
2019-03-28T02:25:47.474Z,76.90
2019-03-28T02:28:52.284Z,76.56
2019-03-28T02:31:57.443Z,76.43
2019-03-28T02:35:01.910Z,77.00
2019-03-28T02:38:06.398Z,77.00
2019-03-28T02:41:10.841Z,76.98
2019-03-28T02:44:15.289Z,77.43
2019-03-28T02:47:19.713Z,77.18
2019-03-28T02:50:24.216Z,77.33
2019-03-28T02:53:28.965Z,78.25
2019-03-28T02:56:34.234Z,78.28
2019-03-28T02:59:39.091Z,77.78
2019-03-28T03:02:44.104Z,77.41
2019-03-28T03:05:48.832Z,77.33
2019-03-28T03:08:53.436Z,78.02
2019-03-28T03:11:58.105Z,78.44
2019-03-28T03:15:03.581Z,77.93
2019-03-28T03:18:08.357Z,77.47
2019-03-28T03:21:12.860Z,77.56
2019-03-28T03:24:17.515Z,77.79
2019-03-28T03:27:22.390Z,77.81
2019-03-28T03:30:27.294Z,77.69
2019-03-28T03:33:32.672Z,77.70
2019-03-28T03:36:37.284Z,77.33
2019-03-28T03:39:42.125Z,77.95
2019-03-28T03:42:46.578Z,78.61
2019-03-28T03:45:51.355Z,78.77
2019-03-28T03:48:55.985Z,79.05
2019-03-28T03:52:00.975Z,79.49
2019-03-28T03:55:06.184Z,79.39
2019-03-28T03:58:16.313Z,79.36
2019-03-28T04:01:17.158Z,79.61
2019-03-28T04:04:22.047Z,79.78
2019-03-28T04:07:27.083Z,79.18
2019-03-28T04:10:31.455Z,79.76
2019-03-28T04:13:36.550Z,79.76
2019-03-28T04:16:41.420Z,79.62
2019-03-28T04:19:46.241Z,79.52
2019-03-28T04:22:51.399Z,79.22
2019-03-28T04:25:55.830Z,78.43
2019-03-28T04:29:00.304Z,78.36
2019-03-28T04:32:04.779Z,79.31
2019-03-28T04:35:09.356Z,80.07
2019-03-28T04:38:13.845Z,81.25
2019-03-28T04:41:18.454Z,81.26
2019-03-28T04:44:22.831Z,81.25
2019-03-28T04:47:27.344Z,81.24
2019-03-28T04:50:32.156Z,81.07
2019-03-28T04:53:37.590Z,81.12
2019-03-28T04:56:42.151Z,80.76
2019-03-28T04:59:47.141Z,80.69
2019-03-28T05:02:51.715Z,80.53
2019-03-28T05:05:56.178Z,80.10
2019-03-28T05:09:00.674Z,80.24
2019-03-28T05:12:05.641Z,80.40
2019-03-28T05:15:11.541Z,80.25
2019-03-28T05:18:16.324Z,80.18
2019-03-28T05:21:20.861Z,80.44
2019-03-28T05:24:25.674Z,81.09
2019-03-28T05:27:30.292Z,81.74
2019-03-28T05:30:35.019Z,81.72
2019-03-28T05:33:39.649Z,81.37
2019-03-28T05:36:45.024Z,81.36
2019-03-28T05:39:49.587Z,80.98
2019-03-28T05:42:54.616Z,81.20
2019-03-28T05:45:59.407Z,80.81
2019-03-28T05:49:04.335Z,80.64
2019-03-28T05:52:11.625Z,80.79
2019-03-28T05:55:15.018Z,80.48
2019-03-28T05:58:19.605Z,80.75
2019-03-28T06:01:24.133Z,80.78
2019-03-28T06:04:28.616Z,80.89
2019-03-28T06:07:33.452Z,81.74
2019-03-28T06:10:38.154Z,79.23
2019-03-28T06:13:44.287Z,79.53
2019-03-28T06:16:49.390Z,80.12
2019-03-28T06:19:53.884Z,79.94
2019-03-28T06:22:58.312Z,79.66
2019-03-28T06:26:02.721Z,79.29
2019-03-28T06:29:08.654Z,79.07
2019-03-28T06:32:13.586Z,78.81
2019-03-28T06:35:21.736Z,78.33
2019-03-28T06:38:25.159Z,79.01
2019-03-28T06:41:29.980Z,78.95
2019-03-28T06:44:34.494Z,78.78
2019-03-28T06:47:39.302Z,78.33
2019-03-28T06:50:44.106Z,77.84
2019-03-28T06:53:52.057Z,77.28
2019-03-28T06:56:56.803Z,77.59
2019-03-28T07:00:01.301Z,76.94
2019-03-28T07:03:05.862Z,77.18
2019-03-28T07:06:11.562Z,76.41
2019-03-28T07:09:16.131Z,76.67
2019-03-28T07:12:20.873Z,75.80
2019-03-28T07:15:25.396Z,76.19
2019-03-28T07:18:29.900Z,76.71
2019-03-28T07:21:34.362Z,77.02
2019-03-28T07:24:39.198Z,77.16
2019-03-28T07:27:44.328Z,76.76
2019-03-28T07:30:49.580Z,75.74
2019-03-28T07:33:54.402Z,75.83
2019-03-28T07:36:59.065Z,75.65
2019-03-28T07:40:03.770Z,75.59
2019-03-28T07:43:08.409Z,74.93
2019-03-28T07:46:12.805Z,74.65
2019-03-28T07:49:17.632Z,74.25
2019-03-28T07:52:22.268Z,73.59
2019-03-28T07:55:26.847Z,73.16
2019-03-28T07:58:31.261Z,72.30
2019-03-28T08:01:35.809Z,72.01
2019-03-28T08:04:40.601Z,71.35
2019-03-28T08:07:45.832Z,71.65
2019-03-28T08:10:51.474Z,70.94
2019-03-28T08:13:56.423Z,71.43
2019-03-28T08:17:01.974Z,71.62
2019-03-28T08:20:10.703Z,71.56
2019-03-28T08:23:14.961Z,71.34
2019-03-28T08:26:19.469Z,70.76
2019-03-28T08:29:23.920Z,70.72
2019-03-28T08:32:28.935Z,70.34
2019-03-28T08:35:34.412Z,69.22
2019-03-28T08:38:39.816Z,69.70
2019-03-28T08:41:44.297Z,69.21
2019-03-28T08:44:49.910Z,69.02
2019-03-28T08:47:54.392Z,68.78
2019-03-28T08:50:59.574Z,68.44
2019-03-28T08:54:04.242Z,67.45
2019-03-28T08:57:08.734Z,68.18
2019-03-28T09:00:16.470Z,67.08
2019-03-28T09:03:19.990Z,66.01
2019-03-28T09:06:24.758Z,64.59
2019-03-28T09:09:29.241Z,63.75
2019-03-28T09:12:35.317Z,64.09
2019-03-28T09:15:44.041Z,62.64
2019-03-28T09:18:46.563Z,63.50
2019-03-28T09:21:51.053Z,61.79
2019-03-28T09:24:55.693Z,61.94
2019-03-28T09:28:00.641Z,59.72
2019-03-28T09:31:18.963Z,60.07
2019-03-28T09:34:11.789Z,60.88
2019-03-28T09:37:16.667Z,59.01
2019-03-28T09:40:21.488Z,58.34
2019-03-28T09:43:26.354Z,58.03
2019-03-28T09:46:31.551Z,57.21
2019-03-28T09:49:35.996Z,57.22
2019-03-28T09:52:40.530Z,56.84
2019-03-28T09:55:45.651Z,56.90
2019-03-28T09:58:50.866Z,56.70
2019-03-28T10:01:55.395Z,55.48
2019-03-28T10:04:59.958Z,55.54
2019-03-28T10:08:04.458Z,53.49
2019-03-28T10:11:09.323Z,55.01
2019-03-28T10:14:15.058Z,55.02
2019-03-28T10:17:19.826Z,55.04
2019-03-28T10:20:24.589Z,53.91
2019-03-28T10:23:29.161Z,53.26
2019-03-28T10:26:34.030Z,52.69
2019-03-28T10:29:38.788Z,52.66
2019-03-28T10:32:43.715Z,52.46
2019-03-28T10:35:48.242Z,52.09
2019-03-28T10:38:52.721Z,49.06
2019-03-28T10:41:57.244Z,47.96
2019-03-28T10:45:01.771Z,47.47
2019-03-28T10:48:06.651Z,48.29
2019-03-28T10:51:11.488Z,49.15
2019-03-28T10:54:20.365Z,49.29
2019-03-28T10:57:29.776Z,47.85
2019-03-28T11:00:28.610Z,48.58
2019-03-28T11:03:33.278Z,47.65
2019-03-28T11:06:37.919Z,48.30
2019-03-28T11:09:42.453Z,48.66
2019-03-28T11:12:46.942Z,48.36
2019-03-28T11:15:51.475Z,48.44
2019-03-28T11:18:56.067Z,49.17
2019-03-28T11:22:00.527Z,47.24
2019-03-28T11:25:05.184Z,47.55
2019-03-28T11:28:09.722Z,47.48
2019-03-28T11:31:14.212Z,45.80
2019-03-28T11:34:18.804Z,46.75
2019-03-28T11:37:26.241Z,45.05
2019-03-28T11:40:30.511Z,46.39
2019-03-28T11:43:35.303Z,45.05
2019-03-28T11:46:39.867Z,45.34
2019-03-28T11:49:44.900Z,45.11
2019-03-28T11:52:49.900Z,45.82
2019-03-28T11:55:54.388Z,44.71
2019-03-28T11:58:59.211Z,44.70
2019-03-28T12:02:19.128Z,44.70
2019-03-28T12:05:10.630Z,44.38
2019-03-28T12:08:15.221Z,43.68
2019-03-28T12:11:20.103Z,42.13
2019-03-28T12:14:24.618Z,43.70
2019-03-28T12:17:30.323Z,42.31
2019-03-28T12:20:34.732Z,43.29
2019-03-28T12:23:39.599Z,41.97
2019-03-28T12:26:44.122Z,41.97
2019-03-28T12:29:49.804Z,42.31
2019-03-28T12:32:54.383Z,42.30
2019-03-28T12:35:58.797Z,42.96
2019-03-28T12:39:04.458Z,42.29
2019-03-28T12:42:08.976Z,42.65
2019-03-28T12:45:14.841Z,42.44
2019-03-28T12:48:19.284Z,42.01
2019-03-28T12:51:24.200Z,42.01
2019-03-28T12:54:29.041Z,41.71
2019-03-28T12:57:33.766Z,42.13
2019-03-28T13:00:38.840Z,42.13
2019-03-28T13:03:45.741Z,42.36
2019-03-28T13:06:49.366Z,43.23
2019-03-28T13:09:54.031Z,43.18
2019-03-28T13:12:58.519Z,44.05
2019-03-28T13:16:03.051Z,44.13
2019-03-28T13:19:07.976Z,43.98
2019-03-28T13:22:13.250Z,43.98
2019-03-28T13:25:17.752Z,44.23
2019-03-28T13:28:22.490Z,43.44
2019-03-28T13:31:26.917Z,45.02
2019-03-28T13:34:31.470Z,44.69
2019-03-28T13:37:35.863Z,44.69
2019-03-28T13:40:40.388Z,44.73
2019-03-28T13:43:45.249Z,45.32
2019-03-28T13:46:49.625Z,45.21
2019-03-28T13:49:54.048Z,45.39
2019-03-28T13:52:58.474Z,45.20
2019-03-28T13:56:03.205Z,45.45
2019-03-28T13:59:08.352Z,45.10
2019-03-28T14:02:13.128Z,45.30
2019-03-28T14:05:17.525Z,44.72
2019-03-28T14:08:22.171Z,44.78
2019-03-28T14:11:26.595Z,44.89
2019-03-28T14:14:31.042Z,45.37
2019-03-28T14:17:35.427Z,45.37
2019-03-28T14:20:39.983Z,45.50
2019-03-28T14:23:44.834Z,45.39
2019-03-28T14:26:52.714Z,45.39
2019-03-28T14:29:57.162Z,45.28
2019-03-28T14:33:11.178Z,45.37
2019-03-28T14:36:08.444Z,44.73
2019-03-28T14:39:13.227Z,45.81
2019-03-28T14:42:19.718Z,44.46
2019-03-28T14:45:23.685Z,44.19
2019-03-28T14:48:28.126Z,44.84
2019-03-28T14:51:32.624Z,43.98
2019-03-28T14:54:36.960Z,44.52
2019-03-28T14:57:42.872Z,44.52
2019-03-28T15:00:49.283Z,43.73
2019-03-28T15:03:53.902Z,43.33
2019-03-28T15:06:59.614Z,42.80
2019-03-28T15:10:04.722Z,42.88
2019-03-28T15:13:09.631Z,43.32
2019-03-28T15:16:14.034Z,43.32
2019-03-28T15:19:18.469Z,43.79
2019-03-28T15:22:23.669Z,44.05
2019-03-28T15:25:28.185Z,44.01
2019-03-28T15:28:32.838Z,44.81
2019-03-28T15:31:37.296Z,44.49
2019-03-28T15:34:42.016Z,44.79
2019-03-28T15:37:47.328Z,45.39
2019-03-28T15:40:52.122Z,45.44
2019-03-28T15:43:56.561Z,45.31
2019-03-28T15:47:01.046Z,46.06
2019-03-28T15:50:06.266Z,45.64
2019-03-28T15:53:10.859Z,45.84
2019-03-28T15:56:15.816Z,45.85
2019-03-28T15:59:21.309Z,46.11
2019-03-28T16:02:25.971Z,46.11
2019-03-28T16:05:30.453Z,46.05
2019-03-28T16:08:34.887Z,46.20
2019-03-28T16:11:39.515Z,46.20
2019-03-28T16:14:43.940Z,45.27
2019-03-28T16:17:48.402Z,46.36
2019-03-28T16:20:53.593Z,45.53
2019-03-28T16:23:58.504Z,45.33
2019-03-28T16:27:09.870Z,45.05
2019-03-28T16:30:15.238Z,44.84
2019-03-28T16:33:19.708Z,45.54
2019-03-28T16:36:24.549Z,46.08
2019-03-28T16:39:29.403Z,46.49
2019-03-28T16:42:34.057Z,46.85
2019-03-28T16:45:38.600Z,47.24
2019-03-28T16:48:43.410Z,46.97
2019-03-28T16:51:47.835Z,47.37
2019-03-28T16:54:53.682Z,47.28
2019-03-28T16:57:58.706Z,47.99
2019-03-28T17:01:03.344Z,48.06
2019-03-28T17:04:20.013Z,47.47
2019-03-28T17:07:14.526Z,47.47
2019-03-28T17:10:44.579Z,48.02
2019-03-28T17:13:49.234Z,48.44
2019-03-28T17:16:53.750Z,48.31
2019-03-28T17:19:58.895Z,48.30
2019-03-28T17:23:03.381Z,48.30
2019-03-28T17:26:08.023Z,48.67
2019-03-28T17:29:12.740Z,48.70
2019-03-28T17:32:17.195Z,48.71
2019-03-28T17:35:21.643Z,49.28
2019-03-28T17:38:26.130Z,49.28
2019-03-28T17:41:31.788Z,49.72
2019-03-28T17:44:37.207Z,50.09
2019-03-28T17:47:41.768Z,50.25
2019-03-28T17:50:46.904Z,51.00
2019-03-28T17:53:51.357Z,51.00
2019-03-28T17:56:55.896Z,51.34
2019-03-28T18:00:00.444Z,51.67
2019-03-28T18:03:09.487Z,52.23
2019-03-28T18:06:11.986Z,52.23
2019-03-28T18:09:16.544Z,52.29
2019-03-28T18:12:21.054Z,52.84
2019-03-28T18:15:25.920Z,53.10
2019-03-28T18:18:30.504Z,53.64
2019-03-28T18:21:35.304Z,53.95
2019-03-28T18:24:39.838Z,54.20
2019-03-28T18:27:44.357Z,54.28
2019-03-28T18:30:48.824Z,54.37
2019-03-28T18:33:53.544Z,54.70
2019-03-28T18:36:58.495Z,54.86
2019-03-28T18:40:04.379Z,54.52
2019-03-28T18:43:09.050Z,54.71
2019-03-28T18:46:14.951Z,55.04
2019-03-28T18:49:19.482Z,55.24
2019-03-28T18:52:24.974Z,55.53
2019-03-28T18:55:30.197Z,55.68
2019-03-28T18:58:34.621Z,56.04
2019-03-28T19:01:39.172Z,55.91
2019-03-28T19:04:43.725Z,56.40
2019-03-28T19:07:48.456Z,56.54
2019-03-28T19:10:52.910Z,57.12
2019-03-28T19:13:57.406Z,57.45
2019-03-28T19:17:02.264Z,57.90
2019-03-28T19:20:07.942Z,58.23
2019-03-28T19:23:12.325Z,58.33
2019-03-28T19:26:17.006Z,58.55
2019-03-28T19:29:21.459Z,58.62
2019-03-28T19:32:25.953Z,58.99
2019-03-28T19:35:33.224Z,59.47
2019-03-28T19:38:37.169Z,59.72
2019-03-28T19:41:41.796Z,59.86
2019-03-28T19:44:46.394Z,60.28
2019-03-28T19:47:50.706Z,60.62
2019-03-28T19:50:55.041Z,60.87
2019-03-28T19:53:59.405Z,61.11
2019-03-28T19:57:03.896Z,61.42
2019-03-28T20:00:08.708Z,61.70
2019-03-28T20:03:13.119Z,62.00
2019-03-28T20:06:22.277Z,62.27
2019-03-28T20:09:24.345Z,62.71
2019-03-28T20:12:31.768Z,62.96
2019-03-28T20:15:36.375Z,62.88
2019-03-28T20:18:43.107Z,63.65
2019-03-28T20:21:47.225Z,64.08
2019-03-28T20:24:51.817Z,64.47
2019-03-28T20:27:56.494Z,64.85
2019-03-28T20:31:01.060Z,65.08
2019-03-28T20:34:05.494Z,65.51
2019-03-28T20:37:11.762Z,65.80
2019-03-28T20:40:17.015Z,66.40
2019-03-28T20:43:21.652Z,66.31
2019-03-28T20:46:26.021Z,66.72
2019-03-28T20:49:30.406Z,67.72
2019-03-28T20:52:34.729Z,67.39
2019-03-28T20:55:39.360Z,67.50
2019-03-28T20:58:43.698Z,68.07
2019-03-28T21:01:48.265Z,68.12
2019-03-28T21:04:52.716Z,69.04
2019-03-28T21:07:57.025Z,68.45
2019-03-28T21:11:01.348Z,69.29
2019-03-28T21:14:05.986Z,69.05
2019-03-28T21:17:10.444Z,70.04
2019-03-28T21:20:14.857Z,69.81
2019-03-28T21:23:19.169Z,70.29
2019-03-28T21:26:23.771Z,70.37
2019-03-28T21:29:28.394Z,70.76
2019-03-28T21:32:32.711Z,70.93
2019-03-28T21:35:37.340Z,71.16
2019-03-28T21:38:42.821Z,71.37
2019-03-28T21:41:47.303Z,71.50
2019-03-28T21:44:51.719Z,71.49
2019-03-28T21:47:56.009Z,71.92
2019-03-28T21:51:00.357Z,72.11
2019-03-28T21:54:05.263Z,71.98
2019-03-28T21:57:09.587Z,72.57
2019-03-28T22:00:14.816Z,73.06
2019-03-28T22:03:19.098Z,73.41
2019-03-28T22:06:23.653Z,73.19
2019-03-28T22:09:27.986Z,73.26
2019-03-28T22:12:32.474Z,73.47
2019-03-28T22:15:36.866Z,73.34
2019-03-28T22:18:41.438Z,73.68
2019-03-28T22:21:46.175Z,73.56
2019-03-28T22:24:50.896Z,74.52
2019-03-28T22:27:55.390Z,74.27
2019-03-28T22:31:00.128Z,75.37
2019-03-28T22:34:04.752Z,75.73
2019-03-28T22:37:09.376Z,75.63
2019-03-28T22:40:14.654Z,75.47
2019-03-28T22:43:19.199Z,74.94
2019-03-28T22:46:23.615Z,75.06
2019-03-28T22:49:28.007Z,74.92
2019-03-28T22:52:32.648Z,75.21
2019-03-28T22:55:37.361Z,74.97
2019-03-28T22:58:42.222Z,74.78
2019-03-28T23:01:46.693Z,74.82
2019-03-28T23:04:51.012Z,74.94
2019-03-28T23:07:55.449Z,75.17
2019-03-28T23:10:59.733Z,75.91
2019-03-28T23:14:04.418Z,76.05
2019-03-28T23:17:08.880Z,76.88
2019-03-28T23:20:16.405Z,76.92
2019-03-28T23:23:23.982Z,77.03
2019-03-28T23:26:28.455Z,77.64
2019-03-28T23:29:33.275Z,76.09
2019-03-28T23:32:38.767Z,77.33
2019-03-28T23:35:43.333Z,78.20
2019-03-28T23:38:47.852Z,77.64
2019-03-28T23:41:52.619Z,77.41
2019-03-28T23:44:57.733Z,77.93
2019-03-28T23:48:02.059Z,78.35
2019-03-28T23:51:06.518Z,78.42
2019-03-28T23:54:10.915Z,78.46
2019-03-28T23:57:15.330Z,78.66
